sensor_id;sensor_type;location;lat;lon;timestamp;temperature;humidity
11836;DHT22;5977;51.972;7.640;2023-06-05T00:01:37;20.50;58.90
11836;DHT22;5977;51.972;7.640;2023-06-05T00:04:04;20.50;59.40
11836;DHT22;5977;51.972;7.640;2023-06-05T00:06:33;20.40;58.90
11836;DHT22;5977;51.972;7.640;2023-06-05T00:09:01;20.40;59.20
11836;DHT22;5977;51.972;7.640;2023-06-05T00:11:29;20.50;59.50
11836;DHT22;5977;51.972;7.640;2023-06-05T00:13:58;20.50;59.10
11836;DHT22;5977;51.972;7.640;2023-06-05T00:16:26;20.40;59.10
11836;DHT22;5977;51.972;7.640;2023-06-05T00:18:54;20.40;59.40
11836;DHT22;5977;51.972;7.640;2023-06-05T00:21:23;20.50;59.30
11836;DHT22;5977;51.972;7.640;2023-06-05T00:23:51;20.60;59.60
11836;DHT22;5977;51.972;7.640;2023-06-05T00:26:19;20.40;59.80
11836;DHT22;5977;51.972;7.640;2023-06-05T00:28:49;20.40;59.40
11836;DHT22;5977;51.972;7.640;2023-06-05T00:31:18;20.10;59.80
11836;DHT22;5977;51.972;7.640;2023-06-05T00:33:48;20.20;59.90
11836;DHT22;5977;51.972;7.640;2023-06-05T00:36:17;20.10;59.80
11836;DHT22;5977;51.972;7.640;2023-06-05T00:38:45;20.10;59.80
11836;DHT22;5977;51.972;7.640;2023-06-05T00:41:13;20.00;59.60
11836;DHT22;5977;51.972;7.640;2023-06-05T00:43:41;20.00;60.20
11836;DHT22;5977;51.972;7.640;2023-06-05T00:46:09;20.20;60.50
11836;DHT22;5977;51.972;7.640;2023-06-05T00:48:40;20.20;60.00
11836;DHT22;5977;51.972;7.640;2023-06-05T00:51:09;20.30;59.90
11836;DHT22;5977;51.972;7.640;2023-06-05T00:53:42;20.30;59.70
11836;DHT22;5977;51.972;7.640;2023-06-05T00:56:12;20.20;60.00
11836;DHT22;5977;51.972;7.640;2023-06-05T00:58:40;20.30;60.00
11836;DHT22;5977;51.972;7.640;2023-06-05T01:01:09;20.30;60.30
11836;DHT22;5977;51.972;7.640;2023-06-05T01:03:39;20.00;60.40
11836;DHT22;5977;51.972;7.640;2023-06-05T01:06:07;20.00;61.00
11836;DHT22;5977;51.972;7.640;2023-06-05T01:08:36;20.00;61.80
11836;DHT22;5977;51.972;7.640;2023-06-05T01:11:11;19.80;60.90
11836;DHT22;5977;51.972;7.640;2023-06-05T01:13:46;19.70;62.00
11836;DHT22;5977;51.972;7.640;2023-06-05T01:16:16;19.90;61.40
11836;DHT22;5977;51.972;7.640;2023-06-05T01:18:46;19.70;60.80
11836;DHT22;5977;51.972;7.640;2023-06-05T01:21:14;19.90;61.70
11836;DHT22;5977;51.972;7.640;2023-06-05T01:23:44;19.60;62.20
11836;DHT22;5977;51.972;7.640;2023-06-05T01:26:18;19.90;62.10
11836;DHT22;5977;51.972;7.640;2023-06-05T01:28:48;19.60;61.60
11836;DHT22;5977;51.972;7.640;2023-06-05T01:31:19;19.80;61.70
11836;DHT22;5977;51.972;7.640;2023-06-05T01:33:50;20.00;61.10
11836;DHT22;5977;51.972;7.640;2023-06-05T01:36:23;19.60;61.20
11836;DHT22;5977;51.972;7.640;2023-06-05T01:38:54;19.70;62.00
11836;DHT22;5977;51.972;7.640;2023-06-05T01:41:23;19.90;61.50
11836;DHT22;5977;51.972;7.640;2023-06-05T01:43:52;19.70;61.40
11836;DHT22;5977;51.972;7.640;2023-06-05T01:46:21;19.80;61.80
11836;DHT22;5977;51.972;7.640;2023-06-05T01:48:50;19.70;61.20
11836;DHT22;5977;51.972;7.640;2023-06-05T01:51:19;19.70;61.90
11836;DHT22;5977;51.972;7.640;2023-06-05T01:53:47;19.70;62.10
11836;DHT22;5977;51.972;7.640;2023-06-05T01:56:17;19.70;61.80
11836;DHT22;5977;51.972;7.640;2023-06-05T01:58:47;19.70;61.40
11836;DHT22;5977;51.972;7.640;2023-06-05T02:01:15;19.80;61.60
11836;DHT22;5977;51.972;7.640;2023-06-05T02:03:44;19.90;61.30
11836;DHT22;5977;51.972;7.640;2023-06-05T02:06:16;19.80;61.00
11836;DHT22;5977;51.972;7.640;2023-06-05T02:08:44;19.70;61.30
11836;DHT22;5977;51.972;7.640;2023-06-05T02:11:12;19.50;62.00
11836;DHT22;5977;51.972;7.640;2023-06-05T02:13:41;19.70;62.20
11836;DHT22;5977;51.972;7.640;2023-06-05T02:16:11;19.70;61.80
11836;DHT22;5977;51.972;7.640;2023-06-05T02:18:41;19.60;61.60
11836;DHT22;5977;51.972;7.640;2023-06-05T02:21:08;19.70;61.90
11836;DHT22;5977;51.972;7.640;2023-06-05T02:23:37;19.80;61.60
11836;DHT22;5977;51.972;7.640;2023-06-05T02:26:05;19.70;61.70
11836;DHT22;5977;51.972;7.640;2023-06-05T02:28:32;19.80;61.80
11836;DHT22;5977;51.972;7.640;2023-06-05T02:31:02;19.60;61.90
11836;DHT22;5977;51.972;7.640;2023-06-05T02:33:31;19.50;62.70
11836;DHT22;5977;51.972;7.640;2023-06-05T02:36:00;19.30;62.30
11836;DHT22;5977;51.972;7.640;2023-06-05T02:38:28;19.40;62.70
11836;DHT22;5977;51.972;7.640;2023-06-05T02:40:56;19.40;62.60
11836;DHT22;5977;51.972;7.640;2023-06-05T02:43:24;19.10;63.30
11836;DHT22;5977;51.972;7.640;2023-06-05T02:45:52;19.20;63.20
11836;DHT22;5977;51.972;7.640;2023-06-05T02:48:21;19.30;63.10
11836;DHT22;5977;51.972;7.640;2023-06-05T02:50:53;19.10;62.90
11836;DHT22;5977;51.972;7.640;2023-06-05T02:53:21;19.40;63.30
11836;DHT22;5977;51.972;7.640;2023-06-05T02:55:49;19.30;62.80
11836;DHT22;5977;51.972;7.640;2023-06-05T02:58:18;19.40;63.00
11836;DHT22;5977;51.972;7.640;2023-06-05T03:00:54;19.20;63.10
11836;DHT22;5977;51.972;7.640;2023-06-05T03:03:24;19.00;62.90
11836;DHT22;5977;51.972;7.640;2023-06-05T03:05:53;19.00;62.60
11836;DHT22;5977;51.972;7.640;2023-06-05T03:08:21;19.00;63.90
11836;DHT22;5977;51.972;7.640;2023-06-05T03:10:49;19.20;63.20
11836;DHT22;5977;51.972;7.640;2023-06-05T03:13:19;19.10;62.90
11836;DHT22;5977;51.972;7.640;2023-06-05T03:15:47;19.20;62.80
11836;DHT22;5977;51.972;7.640;2023-06-05T03:18:18;19.50;62.60
11836;DHT22;5977;51.972;7.640;2023-06-05T03:20:48;19.50;62.10
11836;DHT22;5977;51.972;7.640;2023-06-05T03:23:17;19.40;62.20
11836;DHT22;5977;51.972;7.640;2023-06-05T03:25:45;19.60;62.00
11836;DHT22;5977;51.972;7.640;2023-06-05T03:28:13;19.60;62.00
11836;DHT22;5977;51.972;7.640;2023-06-05T03:30:41;19.50;61.90
11836;DHT22;5977;51.972;7.640;2023-06-05T03:33:10;19.30;62.20
11836;DHT22;5977;51.972;7.640;2023-06-05T03:35:38;19.30;62.30
11836;DHT22;5977;51.972;7.640;2023-06-05T03:38:08;19.50;62.30
11836;DHT22;5977;51.972;7.640;2023-06-05T03:40:37;19.30;62.00
11836;DHT22;5977;51.972;7.640;2023-06-05T03:43:08;19.40;62.00
11836;DHT22;5977;51.972;7.640;2023-06-05T03:45:38;19.30;62.40
11836;DHT22;5977;51.972;7.640;2023-06-05T03:48:08;19.40;62.00
11836;DHT22;5977;51.972;7.640;2023-06-05T03:50:39;19.20;62.20
11836;DHT22;5977;51.972;7.640;2023-06-05T03:53:09;19.20;62.70
11836;DHT22;5977;51.972;7.640;2023-06-05T03:55:40;19.00;62.90
11836;DHT22;5977;51.972;7.640;2023-06-05T03:58:19;19.10;63.00
11836;DHT22;5977;51.972;7.640;2023-06-05T04:00:50;19.10;62.70
11836;DHT22;5977;51.972;7.640;2023-06-05T04:03:18;19.20;63.00
11836;DHT22;5977;51.972;7.640;2023-06-05T04:05:50;19.10;62.80
11836;DHT22;5977;51.972;7.640;2023-06-05T04:08:22;19.00;63.30
11836;DHT22;5977;51.972;7.640;2023-06-05T04:10:52;19.20;63.20
11836;DHT22;5977;51.972;7.640;2023-06-05T04:13:20;19.20;63.00
11836;DHT22;5977;51.972;7.640;2023-06-05T04:15:48;19.30;63.30
11836;DHT22;5977;51.972;7.640;2023-06-05T04:18:16;19.30;62.90
11836;DHT22;5977;51.972;7.640;2023-06-05T04:20:47;19.30;62.80
11836;DHT22;5977;51.972;7.640;2023-06-05T04:23:16;19.20;62.90
11836;DHT22;5977;51.972;7.640;2023-06-05T04:25:45;19.20;62.90
11836;DHT22;5977;51.972;7.640;2023-06-05T04:28:15;19.50;63.20
11836;DHT22;5977;51.972;7.640;2023-06-05T04:30:43;19.80;62.00
11836;DHT22;5977;51.972;7.640;2023-06-05T04:33:14;20.60;59.80
11836;DHT22;5977;51.972;7.640;2023-06-05T04:35:42;20.70;58.80
11836;DHT22;5977;51.972;7.640;2023-06-05T04:38:11;21.20;58.10
11836;DHT22;5977;51.972;7.640;2023-06-05T04:40:41;21.40;57.90
11836;DHT22;5977;51.972;7.640;2023-06-05T04:43:11;21.70;57.10
11836;DHT22;5977;51.972;7.640;2023-06-05T04:45:40;21.70;56.60
11836;DHT22;5977;51.972;7.640;2023-06-05T04:48:11;21.90;56.60
11836;DHT22;5977;51.972;7.640;2023-06-05T04:50:39;21.60;56.10
11836;DHT22;5977;51.972;7.640;2023-06-05T04:53:10;21.90;56.70
11836;DHT22;5977;51.972;7.640;2023-06-05T04:55:39;21.90;55.40
11836;DHT22;5977;51.972;7.640;2023-06-05T04:58:07;21.60;56.20
11836;DHT22;5977;51.972;7.640;2023-06-05T05:00:37;21.90;56.10
11836;DHT22;5977;51.972;7.640;2023-06-05T05:03:07;21.30;56.40
11836;DHT22;5977;51.972;7.640;2023-06-05T05:05:37;20.90;57.80
11836;DHT22;5977;51.972;7.640;2023-06-05T05:08:05;20.40;58.70
11836;DHT22;5977;51.972;7.640;2023-06-05T05:10:33;20.10;59.60
11836;DHT22;5977;51.972;7.640;2023-06-05T05:13:01;20.20;60.60
11836;DHT22;5977;51.972;7.640;2023-06-05T05:15:30;20.20;60.00
11836;DHT22;5977;51.972;7.640;2023-06-05T05:18:01;19.80;61.20
11836;DHT22;5977;51.972;7.640;2023-06-05T05:20:30;19.80;61.10
11836;DHT22;5977;51.972;7.640;2023-06-05T05:23:01;20.20;61.40
11836;DHT22;5977;51.972;7.640;2023-06-05T05:25:29;20.30;61.00
11836;DHT22;5977;51.972;7.640;2023-06-05T05:27:57;20.30;60.70
11836;DHT22;5977;51.972;7.640;2023-06-05T05:30:24;20.20;60.70
11836;DHT22;5977;51.972;7.640;2023-06-05T05:32:53;20.30;60.90
11836;DHT22;5977;51.972;7.640;2023-06-05T05:35:23;20.40;60.20
11836;DHT22;5977;51.972;7.640;2023-06-05T05:37:51;20.20;59.80
11836;DHT22;5977;51.972;7.640;2023-06-05T05:40:19;20.30;59.70
11836;DHT22;5977;51.972;7.640;2023-06-05T05:42:47;20.10;59.80
11836;DHT22;5977;51.972;7.640;2023-06-05T05:45:15;20.00;60.70
11836;DHT22;5977;51.972;7.640;2023-06-05T05:47:43;20.00;60.50
11836;DHT22;5977;51.972;7.640;2023-06-05T05:50:11;20.20;62.10
11836;DHT22;5977;51.972;7.640;2023-06-05T05:52:40;20.10;61.50
11836;DHT22;5977;51.972;7.640;2023-06-05T05:55:09;20.20;61.90
11836;DHT22;5977;51.972;7.640;2023-06-05T05:57:40;20.50;61.70
11836;DHT22;5977;51.972;7.640;2023-06-05T06:00:09;20.50;61.30
11836;DHT22;5977;51.972;7.640;2023-06-05T06:02:39;20.50;61.70
11836;DHT22;5977;51.972;7.640;2023-06-05T06:05:08;20.50;61.20
11836;DHT22;5977;51.972;7.640;2023-06-05T06:07:36;20.90;60.70
11836;DHT22;5977;51.972;7.640;2023-06-05T06:10:07;20.20;61.50
11836;DHT22;5977;51.972;7.640;2023-06-05T06:12:36;20.50;62.00
11836;DHT22;5977;51.972;7.640;2023-06-05T06:15:05;20.40;62.10
11836;DHT22;5977;51.972;7.640;2023-06-05T06:17:33;20.10;62.70
11836;DHT22;5977;51.972;7.640;2023-06-05T06:20:02;20.10;62.20
11836;DHT22;5977;51.972;7.640;2023-06-05T06:22:31;20.00;62.40
11836;DHT22;5977;51.972;7.640;2023-06-05T06:24:59;20.00;62.60
11836;DHT22;5977;51.972;7.640;2023-06-05T06:27:29;20.00;62.50
11836;DHT22;5977;51.972;7.640;2023-06-05T06:30:02;20.10;62.40
11836;DHT22;5977;51.972;7.640;2023-06-05T06:32:30;19.90;62.20
11836;DHT22;5977;51.972;7.640;2023-06-05T06:34:58;20.10;62.00
11836;DHT22;5977;51.972;7.640;2023-06-05T06:37:26;20.20;61.60
11836;DHT22;5977;51.972;7.640;2023-06-05T06:39:55;20.00;61.50
11836;DHT22;5977;51.972;7.640;2023-06-05T06:42:23;19.90;61.90
11836;DHT22;5977;51.972;7.640;2023-06-05T06:45:00;20.00;62.00
11836;DHT22;5977;51.972;7.640;2023-06-05T06:47:28;20.20;61.40
11836;DHT22;5977;51.972;7.640;2023-06-05T06:49:56;20.30;61.40
11836;DHT22;5977;51.972;7.640;2023-06-05T06:52:24;20.20;61.50
11836;DHT22;5977;51.972;7.640;2023-06-05T06:54:52;20.10;61.60
11836;DHT22;5977;51.972;7.640;2023-06-05T06:57:20;20.30;61.20
11836;DHT22;5977;51.972;7.640;2023-06-05T06:59:48;20.40;61.20
11836;DHT22;5977;51.972;7.640;2023-06-05T07:02:18;20.40;61.00
11836;DHT22;5977;51.972;7.640;2023-06-05T07:04:46;20.50;60.70
11836;DHT22;5977;51.972;7.640;2023-06-05T07:07:16;20.30;60.90
11836;DHT22;5977;51.972;7.640;2023-06-05T07:09:45;20.60;60.70
11836;DHT22;5977;51.972;7.640;2023-06-05T07:12:14;20.40;60.70
11836;DHT22;5977;51.972;7.640;2023-06-05T07:14:43;20.40;61.00
11836;DHT22;5977;51.972;7.640;2023-06-05T07:17:11;20.40;60.80
11836;DHT22;5977;51.972;7.640;2023-06-05T07:19:41;20.40;60.80
11836;DHT22;5977;51.972;7.640;2023-06-05T07:22:08;20.30;61.20
11836;DHT22;5977;51.972;7.640;2023-06-05T07:24:36;20.20;61.70
11836;DHT22;5977;51.972;7.640;2023-06-05T07:27:05;20.10;62.00
11836;DHT22;5977;51.972;7.640;2023-06-05T07:29:34;20.30;61.80
11836;DHT22;5977;51.972;7.640;2023-06-05T07:32:03;20.30;61.70
11836;DHT22;5977;51.972;7.640;2023-06-05T07:34:33;20.50;61.10
11836;DHT22;5977;51.972;7.640;2023-06-05T07:37:03;20.60;60.60
11836;DHT22;5977;51.972;7.640;2023-06-05T07:39:31;20.70;60.50
11836;DHT22;5977;51.972;7.640;2023-06-05T07:41:59;20.70;60.50
11836;DHT22;5977;51.972;7.640;2023-06-05T07:44:27;20.80;60.20
11836;DHT22;5977;51.972;7.640;2023-06-05T07:46:54;21.00;59.90
11836;DHT22;5977;51.972;7.640;2023-06-05T07:49:24;20.90;59.90
11836;DHT22;5977;51.972;7.640;2023-06-05T07:51:51;21.00;60.30
11836;DHT22;5977;51.972;7.640;2023-06-05T07:54:21;21.00;59.90
11836;DHT22;5977;51.972;7.640;2023-06-05T07:56:49;21.00;59.70
11836;DHT22;5977;51.972;7.640;2023-06-05T07:59:18;21.10;59.30
11836;DHT22;5977;51.972;7.640;2023-06-05T08:01:51;20.90;59.40
11836;DHT22;5977;51.972;7.640;2023-06-05T08:04:20;20.80;60.00
11836;DHT22;5977;51.972;7.640;2023-06-05T08:06:52;21.20;59.70
11836;DHT22;5977;51.972;7.640;2023-06-05T08:09:21;21.20;59.40
11836;DHT22;5977;51.972;7.640;2023-06-05T08:11:49;21.40;59.50
11836;DHT22;5977;51.972;7.640;2023-06-05T08:14:17;21.90;59.70
11836;DHT22;5977;51.972;7.640;2023-06-05T08:16:45;22.40;58.20
11836;DHT22;5977;51.972;7.640;2023-06-05T08:19:13;23.10;57.50
11836;DHT22;5977;51.972;7.640;2023-06-05T08:21:41;23.80;55.30
11836;DHT22;5977;51.972;7.640;2023-06-05T08:24:09;23.70;54.80
11836;DHT22;5977;51.972;7.640;2023-06-05T08:26:38;23.90;55.30
11836;DHT22;5977;51.972;7.640;2023-06-05T08:29:06;24.20;54.90
11836;DHT22;5977;51.972;7.640;2023-06-05T08:31:34;23.60;56.20
11836;DHT22;5977;51.972;7.640;2023-06-05T08:34:04;23.50;57.40
11836;DHT22;5977;51.972;7.640;2023-06-05T08:36:32;23.40;57.80
11836;DHT22;5977;51.972;7.640;2023-06-05T08:39:02;23.40;58.60
11836;DHT22;5977;51.972;7.640;2023-06-05T08:41:31;23.40;58.60
11836;DHT22;5977;51.972;7.640;2023-06-05T08:44:03;23.40;59.50
11836;DHT22;5977;51.972;7.640;2023-06-05T08:46:34;23.40;59.00
11836;DHT22;5977;51.972;7.640;2023-06-05T08:49:08;23.50;58.80
11836;DHT22;5977;51.972;7.640;2023-06-05T08:51:38;23.60;58.80
11836;DHT22;5977;51.972;7.640;2023-06-05T08:54:08;23.80;58.70
11836;DHT22;5977;51.972;7.640;2023-06-05T08:56:40;23.70;57.60
11836;DHT22;5977;51.972;7.640;2023-06-05T08:59:10;23.90;57.90
11836;DHT22;5977;51.972;7.640;2023-06-05T09:01:41;23.90;57.20
11836;DHT22;5977;51.972;7.640;2023-06-05T09:04:11;24.00;57.60
11836;DHT22;5977;51.972;7.640;2023-06-05T09:06:39;24.10;57.50
11836;DHT22;5977;51.972;7.640;2023-06-05T09:09:07;24.10;57.60
11836;DHT22;5977;51.972;7.640;2023-06-05T09:11:36;24.20;57.30
11836;DHT22;5977;51.972;7.640;2023-06-05T09:14:05;24.10;56.30
11836;DHT22;5977;51.972;7.640;2023-06-05T09:16:35;24.20;57.10
11836;DHT22;5977;51.972;7.640;2023-06-05T09:19:05;24.10;56.40
11836;DHT22;5977;51.972;7.640;2023-06-05T09:21:33;24.00;55.70
11836;DHT22;5977;51.972;7.640;2023-06-05T09:24:20;23.80;56.00
11836;DHT22;5977;51.972;7.640;2023-06-05T09:26:53;23.70;55.80
11836;DHT22;5977;51.972;7.640;2023-06-05T09:29:25;23.70;55.00
11836;DHT22;5977;51.972;7.640;2023-06-05T09:31:56;23.80;55.60
11836;DHT22;5977;51.972;7.640;2023-06-05T09:34:26;23.80;54.90
11836;DHT22;5977;51.972;7.640;2023-06-05T09:36:56;24.10;55.70
11836;DHT22;5977;51.972;7.640;2023-06-05T09:39:25;24.10;55.40
11836;DHT22;5977;51.972;7.640;2023-06-05T09:41:54;24.20;55.80
11836;DHT22;5977;51.972;7.640;2023-06-05T09:44:23;24.30;55.70
11836;DHT22;5977;51.972;7.640;2023-06-05T09:46:58;24.30;55.00
11836;DHT22;5977;51.972;7.640;2023-06-05T09:49:28;24.30;55.30
11836;DHT22;5977;51.972;7.640;2023-06-05T09:51:58;24.40;55.50
11836;DHT22;5977;51.972;7.640;2023-06-05T09:54:27;24.40;55.20
11836;DHT22;5977;51.972;7.640;2023-06-05T09:56:59;24.30;54.90
11836;DHT22;5977;51.972;7.640;2023-06-05T09:59:28;24.30;55.20
11836;DHT22;5977;51.972;7.640;2023-06-05T10:02:02;24.30;55.30
11836;DHT22;5977;51.972;7.640;2023-06-05T10:04:36;24.40;55.40
11836;DHT22;5977;51.972;7.640;2023-06-05T10:07:06;24.50;55.20
11836;DHT22;5977;51.972;7.640;2023-06-05T10:09:34;24.50;55.00
11836;DHT22;5977;51.972;7.640;2023-06-05T10:12:04;24.50;54.60
11836;DHT22;5977;51.972;7.640;2023-06-05T10:14:34;24.50;54.10
11836;DHT22;5977;51.972;7.640;2023-06-05T10:17:04;24.50;54.60
11836;DHT22;5977;51.972;7.640;2023-06-05T10:19:32;24.40;54.50
11836;DHT22;5977;51.972;7.640;2023-06-05T10:22:01;24.40;54.60
11836;DHT22;5977;51.972;7.640;2023-06-05T10:24:30;24.50;54.50
11836;DHT22;5977;51.972;7.640;2023-06-05T10:27:33;24.40;54.40
11836;DHT22;5977;51.972;7.640;2023-06-05T10:30:56;24.40;54.40
11836;DHT22;5977;51.972;7.640;2023-06-05T10:33:42;24.40;54.10
11836;DHT22;5977;51.972;7.640;2023-06-05T10:36:25;24.40;54.40
11836;DHT22;5977;51.972;7.640;2023-06-05T10:38:59;24.40;54.80
11836;DHT22;5977;51.972;7.640;2023-06-05T10:41:27;24.50;55.60
11836;DHT22;5977;51.972;7.640;2023-06-05T10:43:55;24.50;55.40
11836;DHT22;5977;51.972;7.640;2023-06-05T10:46:31;24.50;55.60
11836;DHT22;5977;51.972;7.640;2023-06-05T10:49:10;24.50;55.70
11836;DHT22;5977;51.972;7.640;2023-06-05T10:51:40;24.60;55.60
11836;DHT22;5977;51.972;7.640;2023-06-05T10:54:11;24.60;55.30
11836;DHT22;5977;51.972;7.640;2023-06-05T10:56:56;24.60;55.80
11836;DHT22;5977;51.972;7.640;2023-06-05T10:59:26;24.60;55.20
11836;DHT22;5977;51.972;7.640;2023-06-05T11:02:22;24.60;55.40
11836;DHT22;5977;51.972;7.640;2023-06-05T11:05:08;24.50;53.70
11836;DHT22;5977;51.972;7.640;2023-06-05T11:07:40;24.50;54.20
11836;DHT22;5977;51.972;7.640;2023-06-05T11:10:17;24.50;56.10
11836;DHT22;5977;51.972;7.640;2023-06-05T11:13:01;24.60;55.60
11836;DHT22;5977;51.972;7.640;2023-06-05T11:15:37;24.60;55.80
11836;DHT22;5977;51.972;7.640;2023-06-05T11:18:28;24.60;55.40
11836;DHT22;5977;51.972;7.640;2023-06-05T11:20:58;24.60;55.90
11836;DHT22;5977;51.972;7.640;2023-06-05T11:23:26;24.70;56.40
11836;DHT22;5977;51.972;7.640;2023-06-05T11:25:58;24.70;55.00
11836;DHT22;5977;51.972;7.640;2023-06-05T11:28:45;24.70;54.60
11836;DHT22;5977;51.972;7.640;2023-06-05T11:31:27;24.70;54.60
11836;DHT22;5977;51.972;7.640;2023-06-05T11:33:55;24.70;53.60
11836;DHT22;5977;51.972;7.640;2023-06-05T11:36:25;24.70;54.70
11836;DHT22;5977;51.972;7.640;2023-06-05T11:38:53;24.70;54.60
11836;DHT22;5977;51.972;7.640;2023-06-05T11:41:22;24.70;55.40
11836;DHT22;5977;51.972;7.640;2023-06-05T11:43:51;24.70;55.00
11836;DHT22;5977;51.972;7.640;2023-06-05T11:46:19;24.70;53.20
11836;DHT22;5977;51.972;7.640;2023-06-05T11:48:47;24.60;53.80
11836;DHT22;5977;51.972;7.640;2023-06-05T11:51:15;24.60;54.10
11836;DHT22;5977;51.972;7.640;2023-06-05T11:53:45;24.60;55.10
11836;DHT22;5977;51.972;7.640;2023-06-05T11:56:15;24.60;52.40
11836;DHT22;5977;51.972;7.640;2023-06-05T11:58:44;24.80;52.10
11836;DHT22;5977;51.972;7.640;2023-06-05T12:01:13;24.80;51.70
11836;DHT22;5977;51.972;7.640;2023-06-05T12:03:45;24.80;49.90
11836;DHT22;5977;51.972;7.640;2023-06-05T12:06:14;24.80;50.60
11836;DHT22;5977;51.972;7.640;2023-06-05T12:08:43;24.80;51.30
11836;DHT22;5977;51.972;7.640;2023-06-05T12:11:22;24.80;51.00
11836;DHT22;5977;51.972;7.640;2023-06-05T12:13:51;24.70;50.20
11836;DHT22;5977;51.972;7.640;2023-06-05T12:16:21;24.70;50.00
11836;DHT22;5977;51.972;7.640;2023-06-05T12:18:57;24.80;51.50
11836;DHT22;5977;51.972;7.640;2023-06-05T12:21:41;24.80;51.30
11836;DHT22;5977;51.972;7.640;2023-06-05T12:24:09;24.80;50.40
11836;DHT22;5977;51.972;7.640;2023-06-05T12:26:52;24.70;49.80
11836;DHT22;5977;51.972;7.640;2023-06-05T12:29:22;24.70;50.50
11836;DHT22;5977;51.972;7.640;2023-06-05T12:31:51;24.80;50.10
11836;DHT22;5977;51.972;7.640;2023-06-05T12:34:38;24.80;48.80
11836;DHT22;5977;51.972;7.640;2023-06-05T12:37:26;24.70;51.10
11836;DHT22;5977;51.972;7.640;2023-06-05T12:39:56;24.40;52.30
11836;DHT22;5977;51.972;7.640;2023-06-05T12:42:26;24.30;51.20
11836;DHT22;5977;51.972;7.640;2023-06-05T12:44:55;24.20;52.80
11836;DHT22;5977;51.972;7.640;2023-06-05T12:47:23;24.10;52.30
11836;DHT22;5977;51.972;7.640;2023-06-05T12:49:51;24.00;53.10
11836;DHT22;5977;51.972;7.640;2023-06-05T12:52:19;24.00;51.60
11836;DHT22;5977;51.972;7.640;2023-06-05T12:54:52;24.00;53.00
11836;DHT22;5977;51.972;7.640;2023-06-05T12:57:20;24.00;52.00
11836;DHT22;5977;51.972;7.640;2023-06-05T12:59:52;23.90;52.80
11836;DHT22;5977;51.972;7.640;2023-06-05T13:02:21;23.90;51.10
11836;DHT22;5977;51.972;7.640;2023-06-05T13:04:49;23.90;51.60
11836;DHT22;5977;51.972;7.640;2023-06-05T13:07:17;23.90;50.60
11836;DHT22;5977;51.972;7.640;2023-06-05T13:09:45;23.90;50.20
11836;DHT22;5977;51.972;7.640;2023-06-05T13:12:13;23.90;50.30
11836;DHT22;5977;51.972;7.640;2023-06-05T13:14:41;23.90;51.60
11836;DHT22;5977;51.972;7.640;2023-06-05T13:17:10;23.90;52.30
11836;DHT22;5977;51.972;7.640;2023-06-05T13:19:38;23.90;52.70
11836;DHT22;5977;51.972;7.640;2023-06-05T13:22:06;23.90;51.00
11836;DHT22;5977;51.972;7.640;2023-06-05T13:24:34;24.10;49.60
11836;DHT22;5977;51.972;7.640;2023-06-05T13:27:03;24.30;49.50
11836;DHT22;5977;51.972;7.640;2023-06-05T13:29:31;24.30;47.20
11836;DHT22;5977;51.972;7.640;2023-06-05T13:31:59;24.30;46.50
11836;DHT22;5977;51.972;7.640;2023-06-05T13:34:28;24.30;46.80
11836;DHT22;5977;51.972;7.640;2023-06-05T13:36:57;24.30;48.70
11836;DHT22;5977;51.972;7.640;2023-06-05T13:39:39;24.30;47.90
11836;DHT22;5977;51.972;7.640;2023-06-05T13:42:07;24.50;48.00
11836;DHT22;5977;51.972;7.640;2023-06-05T13:44:35;24.60;47.10
11836;DHT22;5977;51.972;7.640;2023-06-05T13:47:04;24.50;47.40
11836;DHT22;5977;51.972;7.640;2023-06-05T13:49:36;24.60;47.30
11836;DHT22;5977;51.972;7.640;2023-06-05T13:52:04;24.60;48.20
11836;DHT22;5977;51.972;7.640;2023-06-05T13:54:33;24.70;47.30
11836;DHT22;5977;51.972;7.640;2023-06-05T13:57:00;24.70;49.00
11836;DHT22;5977;51.972;7.640;2023-06-05T13:59:29;24.70;48.90
11836;DHT22;5977;51.972;7.640;2023-06-05T14:01:57;24.60;45.70
11836;DHT22;5977;51.972;7.640;2023-06-05T14:04:25;24.70;47.40
11836;DHT22;5977;51.972;7.640;2023-06-05T14:06:54;24.70;47.40
11836;DHT22;5977;51.972;7.640;2023-06-05T14:09:24;24.80;46.80
11836;DHT22;5977;51.972;7.640;2023-06-05T14:11:54;24.90;47.00
11836;DHT22;5977;51.972;7.640;2023-06-05T14:14:22;24.90;45.60
11836;DHT22;5977;51.972;7.640;2023-06-05T14:16:50;24.90;45.20
11836;DHT22;5977;51.972;7.640;2023-06-05T14:19:18;24.80;44.00
11836;DHT22;5977;51.972;7.640;2023-06-05T14:21:46;24.80;44.00
11836;DHT22;5977;51.972;7.640;2023-06-05T14:24:18;24.80;44.50
11836;DHT22;5977;51.972;7.640;2023-06-05T14:26:47;24.80;44.90
11836;DHT22;5977;51.972;7.640;2023-06-05T14:29:15;24.80;45.10
11836;DHT22;5977;51.972;7.640;2023-06-05T14:31:43;24.80;45.20
11836;DHT22;5977;51.972;7.640;2023-06-05T14:34:11;24.80;45.20
11836;DHT22;5977;51.972;7.640;2023-06-05T14:36:39;24.70;45.10
11836;DHT22;5977;51.972;7.640;2023-06-05T14:39:07;24.60;43.50
11836;DHT22;5977;51.972;7.640;2023-06-05T14:41:36;24.60;42.00
11836;DHT22;5977;51.972;7.640;2023-06-05T14:44:06;24.60;43.80
11836;DHT22;5977;51.972;7.640;2023-06-05T14:46:48;24.60;45.80
11836;DHT22;5977;51.972;7.640;2023-06-05T14:49:16;24.70;45.90
11836;DHT22;5977;51.972;7.640;2023-06-05T14:51:45;24.80;44.30
11836;DHT22;5977;51.972;7.640;2023-06-05T14:54:13;24.60;43.90
11836;DHT22;5977;51.972;7.640;2023-06-05T14:56:42;24.60;45.80
11836;DHT22;5977;51.972;7.640;2023-06-05T14:59:12;24.50;45.50
11836;DHT22;5977;51.972;7.640;2023-06-05T15:01:53;24.40;46.80
11836;DHT22;5977;51.972;7.640;2023-06-05T15:04:21;24.40;46.60
11836;DHT22;5977;51.972;7.640;2023-06-05T15:06:49;24.50;46.30
11836;DHT22;5977;51.972;7.640;2023-06-05T15:09:20;24.70;46.90
11836;DHT22;5977;51.972;7.640;2023-06-05T15:11:49;24.70;45.30
11836;DHT22;5977;51.972;7.640;2023-06-05T15:14:17;24.80;46.70
11836;DHT22;5977;51.972;7.640;2023-06-05T15:16:45;24.80;46.20
11836;DHT22;5977;51.972;7.640;2023-06-05T15:19:16;24.80;46.20
11836;DHT22;5977;51.972;7.640;2023-06-05T15:21:44;24.80;46.50
11836;DHT22;5977;51.972;7.640;2023-06-05T15:24:12;24.90;46.60
11836;DHT22;5977;51.972;7.640;2023-06-05T15:26:39;24.90;45.40
11836;DHT22;5977;51.972;7.640;2023-06-05T15:29:14;24.80;45.70
11836;DHT22;5977;51.972;7.640;2023-06-05T15:31:41;24.90;46.60
11836;DHT22;5977;51.972;7.640;2023-06-05T15:34:10;24.90;45.90
11836;DHT22;5977;51.972;7.640;2023-06-05T15:36:38;24.90;46.40
11836;DHT22;5977;51.972;7.640;2023-06-05T15:39:06;25.00;46.10
11836;DHT22;5977;51.972;7.640;2023-06-05T15:41:34;25.00;45.30
11836;DHT22;5977;51.972;7.640;2023-06-05T15:44:03;25.00;47.40
11836;DHT22;5977;51.972;7.640;2023-06-05T15:46:32;25.00;46.80
11836;DHT22;5977;51.972;7.640;2023-06-05T15:49:00;25.10;46.80
11836;DHT22;5977;51.972;7.640;2023-06-05T15:51:28;25.10;47.60
11836;DHT22;5977;51.972;7.640;2023-06-05T15:53:56;25.20;47.80
11836;DHT22;5977;51.972;7.640;2023-06-05T15:57:00;25.10;44.20
11836;DHT22;5977;51.972;7.640;2023-06-05T15:59:28;24.90;45.30
11836;DHT22;5977;51.972;7.640;2023-06-05T16:01:58;24.80;45.30
11836;DHT22;5977;51.972;7.640;2023-06-05T16:04:26;24.60;46.20